Schofield, Hawaii
Current Conditions -  °F | °C
As of 9:58 PM on Wednesday 17 Dec 2014 (Local Time) from PHHI Reporting Station
Clear Clear  
Wind Chill: 71°   Ceiling: Unl
Heat Index: 71°   Visibility: 10mi
Dew Point: 64°   Wind: 3mph
Humidity: 80%   Direction: 210°SSW
Pressure: 30.19"   Gusts: NA
Location:  21.4794°N, 158.1°W
Report Text: PHHI 180758Z AUTO 21003KT 10SM CLR 22/18 A3019 RMK AO2 SLP215 T02150179 $
Loading
Personal Weather Stations






























Interactive Weather Map New forecast layout! Learn more

10-Day Weather Forecast

Advertisements
Track Severe Weather on mobile